sensor_id;sensor_type;location;lat;lon;timestamp;pressure;altitude;pressure_sealevel;temperature;humidity
11878;BME280;5998;42.676;23.268;2023-01-31T00:00:09;94328.50;;;0.41;100.00
11878;BME280;5998;42.676;23.268;2023-01-31T00:02:36;94339.94;;;0.36;100.00
11878;BME280;5998;42.676;23.268;2023-01-31T00:05:03;94340.59;;;0.28;100.00
11878;BME280;5998;42.676;23.268;2023-01-31T00:07:30;94340.75;;;0.18;100.00
11878;BME280;5998;42.676;23.268;2023-01-31T00:09:58;94347.66;;;0.14;100.00
11878;BME280;5998;42.676;23.268;2023-01-31T00:12:25;94337.78;;;0.20;100.00
11878;BME280;5998;42.676;23.268;2023-01-31T00:14:52;94328.63;;;0.12;100.00
11878;BME280;5998;42.676;23.268;2023-01-31T00:17:18;94334.00;;;0.07;100.00
11878;BME280;5998;42.676;23.268;2023-01-31T00:19:45;94336.44;;;0.04;100.00
11878;BME280;5998;42.676;23.268;2023-01-31T00:22:12;94338.81;;;0.05;100.00
11878;BME280;5998;42.676;23.268;2023-01-31T00:24:38;94341.78;;;-0.02;100.00
11878;BME280;5998;42.676;23.268;2023-01-31T00:27:06;94335.38;;;0.05;100.00
11878;BME280;5998;42.676;23.268;2023-01-31T00:29:33;94333.47;;;-0.14;100.00
11878;BME280;5998;42.676;23.268;2023-01-31T00:32:00;94334.28;;;-0.13;100.00
11878;BME280;5998;42.676;23.268;2023-01-31T00:34:28;94341.56;;;-0.05;100.00
11878;BME280;5998;42.676;23.268;2023-01-31T00:36:55;94340.00;;;-0.06;100.00
11878;BME280;5998;42.676;23.268;2023-01-31T00:39:21;94335.41;;;-0.19;100.00
11878;BME280;5998;42.676;23.268;2023-01-31T00:41:48;94337.47;;;-0.16;100.00
11878;BME280;5998;42.676;23.268;2023-01-31T00:44:16;94332.25;;;-0.21;100.00
11878;BME280;5998;42.676;23.268;2023-01-31T00:46:43;94343.28;;;-0.14;100.00
11878;BME280;5998;42.676;23.268;2023-01-31T00:49:10;94335.91;;;-0.17;100.00
11878;BME280;5998;42.676;23.268;2023-01-31T00:51:36;94336.00;;;-0.22;100.00
11878;BME280;5998;42.676;23.268;2023-01-31T00:54:03;94336.19;;;-0.19;100.00
11878;BME280;5998;42.676;23.268;2023-01-31T00:56:30;94334.00;;;-0.12;100.00
11878;BME280;5998;42.676;23.268;2023-01-31T00:58:56;94324.63;;;-0.04;100.00
11878;BME280;5998;42.676;23.268;2023-01-31T01:01:27;94325.41;;;-0.04;100.00
11878;BME280;5998;42.676;23.268;2023-01-31T01:03:55;94341.06;;;-0.07;100.00
11878;BME280;5998;42.676;23.268;2023-01-31T01:06:22;94361.25;;;-0.11;100.00
11878;BME280;5998;42.676;23.268;2023-01-31T01:08:49;94351.97;;;-0.09;100.00
11878;BME280;5998;42.676;23.268;2023-01-31T01:11:18;94344.09;;;0.05;100.00
11878;BME280;5998;42.676;23.268;2023-01-31T01:13:45;94354.25;;;0.17;100.00
11878;BME280;5998;42.676;23.268;2023-01-31T01:16:14;94360.22;;;0.27;100.00
11878;BME280;5998;42.676;23.268;2023-01-31T01:18:43;94352.28;;;0.27;100.00
11878;BME280;5998;42.676;23.268;2023-01-31T01:21:17;94356.75;;;0.45;100.00
11878;BME280;5998;42.676;23.268;2023-01-31T01:23:44;94345.28;;;0.69;100.00
11878;BME280;5998;42.676;23.268;2023-01-31T01:26:12;94339.25;;;0.82;100.00
11878;BME280;5998;42.676;23.268;2023-01-31T01:28:39;94319.25;;;0.89;100.00
11878;BME280;5998;42.676;23.268;2023-01-31T01:31:07;94324.00;;;1.06;100.00
11878;BME280;5998;42.676;23.268;2023-01-31T01:33:34;94317.91;;;1.19;100.00
11878;BME280;5998;42.676;23.268;2023-01-31T01:36:04;94311.75;;;1.37;100.00
11878;BME280;5998;42.676;23.268;2023-01-31T01:38:33;94321.97;;;1.71;100.00
11878;BME280;5998;42.676;23.268;2023-01-31T01:41:00;94323.75;;;1.75;100.00
11878;BME280;5998;42.676;23.268;2023-01-31T01:43:44;94321.84;;;2.03;100.00
11878;BME280;5998;42.676;23.268;2023-01-31T01:46:15;94329.28;;;2.15;100.00
11878;BME280;5998;42.676;23.268;2023-01-31T01:48:44;94335.69;;;2.14;100.00
11878;BME280;5998;42.676;23.268;2023-01-31T01:51:15;94333.41;;;2.21;100.00
11878;BME280;5998;42.676;23.268;2023-01-31T01:53:46;94340.69;;;2.15;100.00
11878;BME280;5998;42.676;23.268;2023-01-31T01:56:16;94341.69;;;2.19;100.00
11878;BME280;5998;42.676;23.268;2023-01-31T01:58:47;94330.75;;;2.21;100.00
11878;BME280;5998;42.676;23.268;2023-01-31T02:01:16;94334.56;;;2.28;100.00
11878;BME280;5998;42.676;23.268;2023-01-31T02:03:44;94328.72;;;2.40;100.00
11878;BME280;5998;42.676;23.268;2023-01-31T02:06:11;94334.81;;;2.41;100.00
11878;BME280;5998;42.676;23.268;2023-01-31T02:08:41;94334.53;;;2.42;100.00
11878;BME280;5998;42.676;23.268;2023-01-31T02:11:13;94336.56;;;2.45;100.00
11878;BME280;5998;42.676;23.268;2023-01-31T02:13:42;94349.38;;;2.43;100.00
11878;BME280;5998;42.676;23.268;2023-01-31T02:16:11;94342.50;;;2.42;100.00
11878;BME280;5998;42.676;23.268;2023-01-31T02:18:37;94339.69;;;2.25;100.00
11878;BME280;5998;42.676;23.268;2023-01-31T02:21:21;94330.75;;;2.21;100.00
11878;BME280;5998;42.676;23.268;2023-01-31T02:24:23;94333.72;;;2.19;100.00
11878;BME280;5998;42.676;23.268;2023-01-31T02:27:14;94330.06;;;2.15;100.00
11878;BME280;5998;42.676;23.268;2023-01-31T02:30:01;94334.59;;;2.15;100.00
11878;BME280;5998;42.676;23.268;2023-01-31T02:32:52;94341.00;;;2.14;100.00
11878;BME280;5998;42.676;23.268;2023-01-31T02:35:30;94349.72;;;2.14;100.00
11878;BME280;5998;42.676;23.268;2023-01-31T02:38:08;94346.88;;;2.24;100.00
11878;BME280;5998;42.676;23.268;2023-01-31T02:40:42;94337.75;;;2.17;100.00
11878;BME280;5998;42.676;23.268;2023-01-31T02:43:18;94347.00;;;2.19;100.00
11878;BME280;5998;42.676;23.268;2023-01-31T02:45:51;94346.19;;;2.19;100.00
11878;BME280;5998;42.676;23.268;2023-01-31T02:48:29;94337.03;;;2.25;100.00
11878;BME280;5998;42.676;23.268;2023-01-31T02:51:03;94341.56;;;2.24;100.00
11878;BME280;5998;42.676;23.268;2023-01-31T02:53:33;94358.00;;;2.13;100.00
11878;BME280;5998;42.676;23.268;2023-01-31T02:56:06;94374.41;;;2.15;100.00
11878;BME280;5998;42.676;23.268;2023-01-31T02:58:41;94371.00;;;2.01;100.00
11878;BME280;5998;42.676;23.268;2023-01-31T03:01:14;94380.66;;;1.97;100.00
11878;BME280;5998;42.676;23.268;2023-01-31T03:03:44;94381.72;;;1.96;100.00
11878;BME280;5998;42.676;23.268;2023-01-31T03:09:36;94399.22;;;1.97;100.00
11878;BME280;5998;42.676;23.268;2023-01-31T03:12:21;94401.28;;;2.00;100.00
11878;BME280;5998;42.676;23.268;2023-01-31T03:15:00;94409.06;;;1.83;100.00
11878;BME280;5998;42.676;23.268;2023-01-31T03:17:38;94419.56;;;1.74;100.00
11878;BME280;5998;42.676;23.268;2023-01-31T03:20:12;94414.75;;;1.76;100.00
11878;BME280;5998;42.676;23.268;2023-01-31T03:22:45;94414.56;;;1.86;100.00
11878;BME280;5998;42.676;23.268;2023-01-31T03:25:16;94403.25;;;1.81;100.00
11878;BME280;5998;42.676;23.268;2023-01-31T03:27:47;94411.31;;;1.75;100.00
11878;BME280;5998;42.676;23.268;2023-01-31T03:30:21;94433.63;;;1.74;100.00
11878;BME280;5998;42.676;23.268;2023-01-31T03:32:53;94425.75;;;1.69;100.00
11878;BME280;5998;42.676;23.268;2023-01-31T03:35:24;94438.16;;;1.74;100.00
11878;BME280;5998;42.676;23.268;2023-01-31T03:37:57;94440.53;;;1.75;100.00
11878;BME280;5998;42.676;23.268;2023-01-31T03:40:30;94435.28;;;1.84;100.00
11878;BME280;5998;42.676;23.268;2023-01-31T03:43:03;94449.75;;;1.78;100.00
11878;BME280;5998;42.676;23.268;2023-01-31T03:45:35;94452.31;;;1.69;100.00
11878;BME280;5998;42.676;23.268;2023-01-31T03:48:04;94411.84;;;1.32;100.00
11878;BME280;5998;42.676;23.268;2023-01-31T03:50:42;94454.75;;;1.66;100.00
11878;BME280;5998;42.676;23.268;2023-01-31T03:53:12;94457.41;;;1.66;100.00
11878;BME280;5998;42.676;23.268;2023-01-31T03:55:43;94457.13;;;1.67;100.00
11878;BME280;5998;42.676;23.268;2023-01-31T03:58:17;94463.50;;;1.66;100.00
11878;BME280;5998;42.676;23.268;2023-01-31T04:00:47;94471.56;;;1.75;100.00
11878;BME280;5998;42.676;23.268;2023-01-31T04:03:23;94461.50;;;1.58;100.00
11878;BME280;5998;42.676;23.268;2023-01-31T04:05:54;94456.66;;;1.47;100.00
11878;BME280;5998;42.676;23.268;2023-01-31T04:08:21;94454.69;;;1.39;100.00
11878;BME280;5998;42.676;23.268;2023-01-31T04:10:48;94456.75;;;1.42;100.00
11878;BME280;5998;42.676;23.268;2023-01-31T04:13:15;94474.72;;;1.31;100.00
11878;BME280;5998;42.676;23.268;2023-01-31T04:15:42;94476.56;;;1.31;100.00
11878;BME280;5998;42.676;23.268;2023-01-31T04:18:09;94479.34;;;1.39;100.00
11878;BME280;5998;42.676;23.268;2023-01-31T04:20:35;94480.19;;;1.35;100.00
11878;BME280;5998;42.676;23.268;2023-01-31T04:23:03;94480.59;;;1.28;100.00
11878;BME280;5998;42.676;23.268;2023-01-31T04:25:30;94469.19;;;1.28;100.00
11878;BME280;5998;42.676;23.268;2023-01-31T04:27:57;94496.06;;;1.21;100.00
11878;BME280;5998;42.676;23.268;2023-01-31T04:30:23;94464.72;;;1.09;100.00
11878;BME280;5998;42.676;23.268;2023-01-31T04:32:50;94490.13;;;1.10;100.00
11878;BME280;5998;42.676;23.268;2023-01-31T04:35:17;94503.75;;;1.04;100.00
11878;BME280;5998;42.676;23.268;2023-01-31T04:37:43;94495.38;;;0.97;100.00
11878;BME280;5998;42.676;23.268;2023-01-31T04:40:12;94501.38;;;0.84;100.00
11878;BME280;5998;42.676;23.268;2023-01-31T04:42:39;94493.50;;;0.79;100.00
11878;BME280;5998;42.676;23.268;2023-01-31T04:45:06;94503.53;;;0.82;100.00
11878;BME280;5998;42.676;23.268;2023-01-31T04:47:33;94503.31;;;0.78;100.00
11878;BME280;5998;42.676;23.268;2023-01-31T04:50:00;94496.00;;;0.70;100.00
11878;BME280;5998;42.676;23.268;2023-01-31T04:52:27;94502.53;;;0.78;100.00
11878;BME280;5998;42.676;23.268;2023-01-31T04:54:53;94509.19;;;0.75;100.00
11878;BME280;5998;42.676;23.268;2023-01-31T04:57:21;94512.69;;;0.71;100.00
11878;BME280;5998;42.676;23.268;2023-01-31T04:59:48;94499.78;;;0.64;100.00
11878;BME280;5998;42.676;23.268;2023-01-31T05:02:16;94493.44;;;0.65;100.00
11878;BME280;5998;42.676;23.268;2023-01-31T05:04:43;94498.00;;;0.59;100.00
11878;BME280;5998;42.676;23.268;2023-01-31T05:07:10;94495.84;;;0.62;100.00
11878;BME280;5998;42.676;23.268;2023-01-31T05:09:37;94502.44;;;0.64;100.00
11878;BME280;5998;42.676;23.268;2023-01-31T05:12:04;94497.16;;;0.64;100.00
11878;BME280;5998;42.676;23.268;2023-01-31T05:14:33;94494.78;;;0.63;100.00
11878;BME280;5998;42.676;23.268;2023-01-31T05:17:00;94503.22;;;0.65;100.00
11878;BME280;5998;42.676;23.268;2023-01-31T05:19:27;94504.13;;;0.79;100.00
11878;BME280;5998;42.676;23.268;2023-01-31T05:21:53;94509.50;;;0.92;100.00
11878;BME280;5998;42.676;23.268;2023-01-31T05:24:24;94522.88;;;1.01;100.00
11878;BME280;5998;42.676;23.268;2023-01-31T05:26:51;94520.09;;;0.92;100.00
11878;BME280;5998;42.676;23.268;2023-01-31T05:29:22;94520.97;;;0.88;100.00
11878;BME280;5998;42.676;23.268;2023-01-31T05:31:51;94508.47;;;0.88;100.00
11878;BME280;5998;42.676;23.268;2023-01-31T05:34:18;94522.81;;;0.87;100.00
11878;BME280;5998;42.676;23.268;2023-01-31T05:36:45;94518.72;;;1.13;100.00
11878;BME280;5998;42.676;23.268;2023-01-31T05:39:11;94525.28;;;1.53;100.00
11878;BME280;5998;42.676;23.268;2023-01-31T05:41:38;94523.41;;;1.86;100.00
11878;BME280;5998;42.676;23.268;2023-01-31T05:44:05;94521.25;;;1.88;100.00
11878;BME280;5998;42.676;23.268;2023-01-31T05:46:31;94508.75;;;1.89;100.00
11878;BME280;5998;42.676;23.268;2023-01-31T05:49:00;94525.91;;;2.51;100.00
11878;BME280;5998;42.676;23.268;2023-01-31T05:51:26;94527.41;;;2.43;100.00
11878;BME280;5998;42.676;23.268;2023-01-31T05:53:53;94521.78;;;2.58;100.00
11878;BME280;5998;42.676;23.268;2023-01-31T05:56:20;94525.59;;;2.79;100.00
11878;BME280;5998;42.676;23.268;2023-01-31T05:58:47;94531.59;;;2.98;100.00
11878;BME280;5998;42.676;23.268;2023-01-31T06:01:15;94514.47;;;2.64;100.00
11878;BME280;5998;42.676;23.268;2023-01-31T06:03:42;94532.19;;;2.82;100.00
11878;BME280;5998;42.676;23.268;2023-01-31T06:06:10;94528.63;;;2.86;100.00
11878;BME280;5998;42.676;23.268;2023-01-31T06:08:37;94516.47;;;3.21;100.00
11878;BME280;5998;42.676;23.268;2023-01-31T06:11:04;94527.72;;;3.05;100.00
11878;BME280;5998;42.676;23.268;2023-01-31T06:13:31;94527.84;;;2.86;100.00
11878;BME280;5998;42.676;23.268;2023-01-31T06:15:58;94527.88;;;2.45;100.00
11878;BME280;5998;42.676;23.268;2023-01-31T06:18:25;94522.06;;;2.16;100.00
11878;BME280;5998;42.676;23.268;2023-01-31T06:20:52;94515.06;;;2.06;100.00
11878;BME280;5998;42.676;23.268;2023-01-31T06:23:20;94496.28;;;1.89;100.00
11878;BME280;5998;42.676;23.268;2023-01-31T06:25:48;94525.09;;;1.96;100.00
11878;BME280;5998;42.676;23.268;2023-01-31T06:28:15;94533.03;;;1.96;100.00
11878;BME280;5998;42.676;23.268;2023-01-31T06:30:42;94533.00;;;1.82;100.00
11878;BME280;5998;42.676;23.268;2023-01-31T06:33:09;94538.06;;;1.84;100.00
11878;BME280;5998;42.676;23.268;2023-01-31T06:35:36;94541.06;;;1.77;100.00
11878;BME280;5998;42.676;23.268;2023-01-31T06:38:02;94538.78;;;1.70;100.00
11878;BME280;5998;42.676;23.268;2023-01-31T06:40:31;94540.72;;;1.65;100.00
11878;BME280;5998;42.676;23.268;2023-01-31T06:42:58;94541.38;;;1.57;100.00
11878;BME280;5998;42.676;23.268;2023-01-31T06:45:25;94535.81;;;1.58;100.00
11878;BME280;5998;42.676;23.268;2023-01-31T06:47:51;94537.38;;;1.59;100.00
11878;BME280;5998;42.676;23.268;2023-01-31T06:50:18;94540.75;;;1.46;100.00
11878;BME280;5998;42.676;23.268;2023-01-31T06:52:45;94538.13;;;1.46;100.00
11878;BME280;5998;42.676;23.268;2023-01-31T06:55:12;94545.50;;;1.49;100.00
11878;BME280;5998;42.676;23.268;2023-01-31T06:57:46;94535.91;;;1.53;100.00
11878;BME280;5998;42.676;23.268;2023-01-31T07:00:14;94532.72;;;1.51;100.00
11878;BME280;5998;42.676;23.268;2023-01-31T07:02:41;94543.56;;;1.55;100.00
11878;BME280;5998;42.676;23.268;2023-01-31T07:05:08;94543.19;;;1.61;100.00
11878;BME280;5998;42.676;23.268;2023-01-31T07:07:34;94541.53;;;1.65;100.00
11878;BME280;5998;42.676;23.268;2023-01-31T07:10:01;94553.94;;;1.70;100.00
11878;BME280;5998;42.676;23.268;2023-01-31T07:12:28;94547.94;;;1.64;100.00
11878;BME280;5998;42.676;23.268;2023-01-31T07:14:56;94546.47;;;1.72;100.00
11878;BME280;5998;42.676;23.268;2023-01-31T07:17:23;94554.56;;;1.81;100.00
11878;BME280;5998;42.676;23.268;2023-01-31T07:19:49;94553.06;;;1.74;100.00
11878;BME280;5998;42.676;23.268;2023-01-31T07:22:16;94559.88;;;1.81;100.00
11878;BME280;5998;42.676;23.268;2023-01-31T07:24:43;94551.47;;;1.73;100.00
11878;BME280;5998;42.676;23.268;2023-01-31T07:27:11;94560.22;;;1.74;100.00
11878;BME280;5998;42.676;23.268;2023-01-31T07:29:38;94569.28;;;1.73;100.00
11878;BME280;5998;42.676;23.268;2023-01-31T07:32:06;94559.59;;;1.63;100.00
11878;BME280;5998;42.676;23.268;2023-01-31T07:34:33;94562.53;;;1.81;100.00
11878;BME280;5998;42.676;23.268;2023-01-31T07:37:00;94533.16;;;1.58;100.00
11878;BME280;5998;42.676;23.268;2023-01-31T07:39:26;94569.91;;;1.84;100.00
11878;BME280;5998;42.676;23.268;2023-01-31T07:41:53;94567.38;;;1.92;100.00
11878;BME280;5998;42.676;23.268;2023-01-31T07:44:20;94566.31;;;2.07;100.00
11878;BME280;5998;42.676;23.268;2023-01-31T07:46:47;94580.03;;;1.95;100.00
11878;BME280;5998;42.676;23.268;2023-01-31T07:49:15;94583.56;;;1.91;100.00
11878;BME280;5998;42.676;23.268;2023-01-31T07:51:41;94586.66;;;1.98;100.00
11878;BME280;5998;42.676;23.268;2023-01-31T07:54:09;94577.78;;;1.89;100.00
11878;BME280;5998;42.676;23.268;2023-01-31T07:56:37;94585.47;;;2.04;100.00
11878;BME280;5998;42.676;23.268;2023-01-31T07:59:03;94562.69;;;2.03;100.00
11878;BME280;5998;42.676;23.268;2023-01-31T08:01:30;94576.94;;;2.07;100.00
11878;BME280;5998;42.676;23.268;2023-01-31T08:04:16;94587.41;;;2.17;100.00
11878;BME280;5998;42.676;23.268;2023-01-31T08:06:44;94576.16;;;2.20;100.00
11878;BME280;5998;42.676;23.268;2023-01-31T08:09:11;94573.50;;;2.20;100.00
11878;BME280;5998;42.676;23.268;2023-01-31T08:11:38;94573.94;;;2.41;100.00
11878;BME280;5998;42.676;23.268;2023-01-31T08:14:05;94562.84;;;2.52;100.00
11878;BME280;5998;42.676;23.268;2023-01-31T08:16:33;94568.75;;;2.49;100.00
11878;BME280;5998;42.676;23.268;2023-01-31T08:19:01;94563.69;;;2.61;100.00
11878;BME280;5998;42.676;23.268;2023-01-31T08:21:29;94571.78;;;2.70;100.00
11878;BME280;5998;42.676;23.268;2023-01-31T08:23:56;94567.34;;;2.79;100.00
11878;BME280;5998;42.676;23.268;2023-01-31T08:26:22;94567.38;;;3.28;100.00
11878;BME280;5998;42.676;23.268;2023-01-31T08:28:50;94562.50;;;3.44;100.00
11878;BME280;5998;42.676;23.268;2023-01-31T08:31:19;94543.97;;;3.39;100.00
11878;BME280;5998;42.676;23.268;2023-01-31T08:33:46;94559.13;;;3.16;100.00
11878;BME280;5998;42.676;23.268;2023-01-31T08:36:17;94557.56;;;3.51;100.00
11878;BME280;5998;42.676;23.268;2023-01-31T08:38:45;94553.94;;;3.69;100.00
11878;BME280;5998;42.676;23.268;2023-01-31T08:41:13;94556.34;;;3.57;100.00
11878;BME280;5998;42.676;23.268;2023-01-31T08:43:39;94556.09;;;3.45;100.00
11878;BME280;5998;42.676;23.268;2023-01-31T08:46:06;94575.34;;;3.64;100.00
11878;BME280;5998;42.676;23.268;2023-01-31T08:48:33;94541.88;;;3.49;100.00
11878;BME280;5998;42.676;23.268;2023-01-31T08:51:02;94552.41;;;3.77;100.00
11878;BME280;5998;42.676;23.268;2023-01-31T08:53:28;94555.44;;;3.84;100.00
11878;BME280;5998;42.676;23.268;2023-01-31T08:55:58;94554.13;;;3.73;100.00
11878;BME280;5998;42.676;23.268;2023-01-31T08:58:25;94557.06;;;3.71;100.00
11878;BME280;5998;42.676;23.268;2023-01-31T09:00:52;94559.56;;;4.12;100.00
11878;BME280;5998;42.676;23.268;2023-01-31T09:03:18;94554.78;;;4.00;100.00
11878;BME280;5998;42.676;23.268;2023-01-31T09:05:45;94548.25;;;3.84;100.00
11878;BME280;5998;42.676;23.268;2023-01-31T09:08:12;94558.84;;;3.98;100.00
11878;BME280;5998;42.676;23.268;2023-01-31T09:10:38;94555.25;;;3.80;100.00
11878;BME280;5998;42.676;23.268;2023-01-31T09:13:06;94560.66;;;3.67;100.00
11878;BME280;5998;42.676;23.268;2023-01-31T09:15:33;94556.56;;;3.47;100.00
11878;BME280;5998;42.676;23.268;2023-01-31T09:18:00;94559.13;;;3.52;100.00
11878;BME280;5998;42.676;23.268;2023-01-31T09:20:27;94566.50;;;3.77;100.00
11878;BME280;5998;42.676;23.268;2023-01-31T09:22:54;94552.69;;;4.20;100.00
11878;BME280;5998;42.676;23.268;2023-01-31T09:25:21;94558.22;;;4.32;100.00
11878;BME280;5998;42.676;23.268;2023-01-31T09:27:47;94553.53;;;4.37;100.00
11878;BME280;5998;42.676;23.268;2023-01-31T09:30:16;94549.06;;;4.46;100.00
11878;BME280;5998;42.676;23.268;2023-01-31T09:32:43;94543.06;;;4.41;100.00
11878;BME280;5998;42.676;23.268;2023-01-31T09:35:10;94549.97;;;4.42;100.00
11878;BME280;5998;42.676;23.268;2023-01-31T09:37:37;94547.22;;;4.25;100.00
11878;BME280;5998;42.676;23.268;2023-01-31T09:40:04;94533.91;;;4.64;100.00
11878;BME280;5998;42.676;23.268;2023-01-31T09:42:34;94542.94;;;4.46;100.00
11878;BME280;5998;42.676;23.268;2023-01-31T09:45:05;94546.41;;;4.55;100.00
11878;BME280;5998;42.676;23.268;2023-01-31T09:47:36;94531.69;;;4.57;100.00
11878;BME280;5998;42.676;23.268;2023-01-31T09:50:06;94526.03;;;4.59;100.00
11878;BME280;5998;42.676;23.268;2023-01-31T09:52:37;94509.16;;;4.72;100.00
11878;BME280;5998;42.676;23.268;2023-01-31T09:55:05;94524.56;;;4.92;100.00
11878;BME280;5998;42.676;23.268;2023-01-31T09:57:39;94525.00;;;4.77;100.00
11878;BME280;5998;42.676;23.268;2023-01-31T10:00:15;94523.41;;;4.67;100.00
11878;BME280;5998;42.676;23.268;2023-01-31T10:03:03;94519.94;;;4.67;100.00
11878;BME280;5998;42.676;23.268;2023-01-31T10:05:36;94486.63;;;4.39;100.00
11878;BME280;5998;42.676;23.268;2023-01-31T10:08:13;94525.78;;;4.30;100.00
11878;BME280;5998;42.676;23.268;2023-01-31T10:10:44;94512.75;;;4.28;100.00
11878;BME280;5998;42.676;23.268;2023-01-31T10:13:16;94513.91;;;4.44;100.00
11878;BME280;5998;42.676;23.268;2023-01-31T10:15:49;94467.56;;;4.14;100.00
11878;BME280;5998;42.676;23.268;2023-01-31T10:18:22;94493.00;;;4.29;100.00
11878;BME280;5998;42.676;23.268;2023-01-31T10:20:54;94497.47;;;4.51;100.00
11878;BME280;5998;42.676;23.268;2023-01-31T10:23:25;94481.19;;;4.61;100.00
11878;BME280;5998;42.676;23.268;2023-01-31T10:25:57;94480.72;;;4.67;100.00
11878;BME280;5998;42.676;23.268;2023-01-31T10:28:31;94455.53;;;4.34;100.00
11878;BME280;5998;42.676;23.268;2023-01-31T10:31:06;94476.66;;;4.70;100.00
11878;BME280;5998;42.676;23.268;2023-01-31T10:33:44;94486.13;;;4.93;100.00
11878;BME280;5998;42.676;23.268;2023-01-31T10:36:17;94487.84;;;4.33;100.00
11878;BME280;5998;42.676;23.268;2023-01-31T10:38:55;94479.75;;;4.46;100.00
11878;BME280;5998;42.676;23.268;2023-01-31T10:41:30;94471.00;;;4.15;100.00
11878;BME280;5998;42.676;23.268;2023-01-31T10:44:02;94481.63;;;3.76;100.00
11878;BME280;5998;42.676;23.268;2023-01-31T10:46:31;94475.38;;;3.80;100.00
11878;BME280;5998;42.676;23.268;2023-01-31T10:48:59;94475.94;;;3.99;100.00
11878;BME280;5998;42.676;23.268;2023-01-31T10:51:48;94479.78;;;4.15;100.00
11878;BME280;5998;42.676;23.268;2023-01-31T10:54:28;94478.19;;;4.06;100.00
11878;BME280;5998;42.676;23.268;2023-01-31T10:57:00;94480.59;;;4.25;100.00
11878;BME280;5998;42.676;23.268;2023-01-31T10:59:29;94490.84;;;4.40;100.00
11878;BME280;5998;42.676;23.268;2023-01-31T11:01:58;94500.38;;;4.01;100.00
11878;BME280;5998;42.676;23.268;2023-01-31T11:04:30;94499.06;;;4.21;100.00
11878;BME280;5998;42.676;23.268;2023-01-31T11:06:58;94489.81;;;4.18;100.00
11878;BME280;5998;42.676;23.268;2023-01-31T11:09:28;94508.66;;;3.91;100.00
11878;BME280;5998;42.676;23.268;2023-01-31T11:11:57;94464.88;;;3.53;100.00
11878;BME280;5998;42.676;23.268;2023-01-31T11:14:24;94488.09;;;3.61;100.00
11878;BME280;5998;42.676;23.268;2023-01-31T11:16:57;94489.31;;;3.55;100.00
11878;BME280;5998;42.676;23.268;2023-01-31T11:19:31;94505.06;;;3.65;100.00
11878;BME280;5998;42.676;23.268;2023-01-31T11:22:00;94496.63;;;3.72;100.00
11878;BME280;5998;42.676;23.268;2023-01-31T11:24:29;94507.13;;;3.46;100.00
11878;BME280;5998;42.676;23.268;2023-01-31T11:26:59;94507.53;;;3.39;100.00
11878;BME280;5998;42.676;23.268;2023-01-31T11:29:30;94505.72;;;3.48;100.00
11878;BME280;5998;42.676;23.268;2023-01-31T11:31:59;94514.75;;;3.25;100.00
11878;BME280;5998;42.676;23.268;2023-01-31T11:34:28;94514.91;;;3.07;100.00
11878;BME280;5998;42.676;23.268;2023-01-31T11:37:04;94510.28;;;3.12;100.00
11878;BME280;5998;42.676;23.268;2023-01-31T11:39:33;94509.69;;;3.15;100.00
11878;BME280;5998;42.676;23.268;2023-01-31T11:42:05;94509.47;;;3.12;100.00
11878;BME280;5998;42.676;23.268;2023-01-31T11:44:32;94511.59;;;3.01;100.00
11878;BME280;5998;42.676;23.268;2023-01-31T11:47:02;94516.13;;;2.87;100.00
11878;BME280;5998;42.676;23.268;2023-01-31T11:49:31;94520.41;;;2.74;100.00
11878;BME280;5998;42.676;23.268;2023-01-31T11:52:10;94518.34;;;2.58;100.00
11878;BME280;5998;42.676;23.268;2023-01-31T11:54:40;94513.91;;;2.53;100.00
11878;BME280;5998;42.676;23.268;2023-01-31T11:57:13;94524.53;;;2.53;100.00
11878;BME280;5998;42.676;23.268;2023-01-31T11:59:41;94505.75;;;2.36;100.00
11878;BME280;5998;42.676;23.268;2023-01-31T12:02:23;94516.97;;;2.47;100.00
11878;BME280;5998;42.676;23.268;2023-01-31T12:04:51;94522.09;;;2.43;100.00
11878;BME280;5998;42.676;23.268;2023-01-31T12:07:24;94519.13;;;2.31;100.00
11878;BME280;5998;42.676;23.268;2023-01-31T12:09:53;94513.13;;;2.25;100.00
11878;BME280;5998;42.676;23.268;2023-01-31T12:12:23;94519.63;;;2.19;100.00
11878;BME280;5998;42.676;23.268;2023-01-31T12:14:54;94499.25;;;2.15;100.00
11878;BME280;5998;42.676;23.268;2023-01-31T12:17:27;94523.56;;;2.35;100.00
11878;BME280;5998;42.676;23.268;2023-01-31T12:22:54;94527.78;;;2.50;100.00
11878;BME280;5998;42.676;23.268;2023-01-31T12:25:41;94524.94;;;2.47;100.00
11878;BME280;5998;42.676;23.268;2023-01-31T12:28:20;94522.38;;;2.42;100.00
11878;BME280;5998;42.676;23.268;2023-01-31T12:30:59;94500.34;;;2.41;100.00
11878;BME280;5998;42.676;23.268;2023-01-31T12:33:43;94509.97;;;2.51;100.00
11878;BME280;5998;42.676;23.268;2023-01-31T12:36:36;94518.44;;;2.53;100.00
11878;BME280;5998;42.676;23.268;2023-01-31T12:39:27;94501.13;;;2.55;100.00
11878;BME280;5998;42.676;23.268;2023-01-31T12:42:11;94513.13;;;2.66;100.00
11878;BME280;5998;42.676;23.268;2023-01-31T12:44:44;94512.72;;;2.73;100.00
11878;BME280;5998;42.676;23.268;2023-01-31T12:47:39;94512.59;;;2.78;100.00
11878;BME280;5998;42.676;23.268;2023-01-31T12:50:21;94510.63;;;2.70;100.00
11878;BME280;5998;42.676;23.268;2023-01-31T12:53:23;94517.06;;;2.69;100.00
11878;BME280;5998;42.676;23.268;2023-01-31T12:56:05;94521.28;;;2.70;100.00
11878;BME280;5998;42.676;23.268;2023-01-31T12:58:44;94511.44;;;2.70;100.00
11878;BME280;5998;42.676;23.268;2023-01-31T13:01:16;94511.16;;;2.72;100.00
11878;BME280;5998;42.676;23.268;2023-01-31T13:03:58;94510.34;;;2.85;100.00
11878;BME280;5998;42.676;23.268;2023-01-31T13:06:29;94512.09;;;2.89;100.00
11878;BME280;5998;42.676;23.268;2023-01-31T13:09:00;94507.47;;;2.81;100.00
11878;BME280;5998;42.676;23.268;2023-01-31T13:11:36;94513.03;;;2.71;100.00
11878;BME280;5998;42.676;23.268;2023-01-31T13:14:05;94515.25;;;2.78;100.00
11878;BME280;5998;42.676;23.268;2023-01-31T13:16:38;94516.75;;;2.70;100.00
11878;BME280;5998;42.676;23.268;2023-01-31T13:19:12;94518.34;;;2.71;100.00
11878;BME280;5998;42.676;23.268;2023-01-31T13:21:44;94516.47;;;2.72;100.00